Terminal Aerodrome Forecast
Issued by NWS Kansas City/Pleasant Hill, MO

Home | Current Version | Previous Version | Text Only | Print | Product List | Glossary On
Versions: 1 2 3 4 5 6 7 8 9 10 11 12 13 14 15
901
FTUS43 KEAX 241137
TAFMCI
TAF
KMCI 241137Z 2412/2512 16007KT P6SM SKC
     FM241500 16011KT P6SM SCT050 BKN200
     FM242000 16010KT P6SM VCTS BKN050CB
     FM250100 16008KT 5SM -TSRA BKN050CB
     FM250500 21005KT P6SM VCSH SCT050 BKN090
     FM250900 25005KT P6SM SCT050 BKN090=

USA.gov is the U.S. government's official web portal to all federal, state and local government web resources and services.